sensor_id;sensor_type;location;lat;lon;timestamp;P1;durP1;ratioP1;P2;durP2;ratioP2
611;SDS011;293;53.888;11.464;2022-12-18T00:02:24;37.33;;;20.55;;
611;SDS011;293;53.888;11.464;2022-12-18T00:04:51;34.90;;;18.75;;
611;SDS011;293;53.888;11.464;2022-12-18T00:07:18;36.72;;;18.38;;
611;SDS011;293;53.888;11.464;2022-12-18T00:09:46;39.92;;;20.67;;
611;SDS011;293;53.888;11.464;2022-12-18T00:12:13;39.83;;;19.00;;
611;SDS011;293;53.888;11.464;2022-12-18T00:14:40;38.55;;;19.08;;
611;SDS011;293;53.888;11.464;2022-12-18T00:17:07;41.42;;;19.17;;
611;SDS011;293;53.888;11.464;2022-12-18T00:19:34;38.55;;;19.70;;
611;SDS011;293;53.888;11.464;2022-12-18T00:22:00;35.22;;;17.95;;
611;SDS011;293;53.888;11.464;2022-12-18T00:24:27;34.45;;;19.30;;
611;SDS011;293;53.888;11.464;2022-12-18T00:26:56;34.67;;;18.45;;
611;SDS011;293;53.888;11.464;2022-12-18T00:29:23;41.25;;;19.48;;
611;SDS011;293;53.888;11.464;2022-12-18T00:31:49;36.85;;;19.30;;
611;SDS011;293;53.888;11.464;2022-12-18T00:34:16;37.17;;;17.80;;
611;SDS011;293;53.888;11.464;2022-12-18T00:36:43;32.17;;;18.50;;
611;SDS011;293;53.888;11.464;2022-12-18T00:39:10;38.45;;;17.65;;
611;SDS011;293;53.888;11.464;2022-12-18T00:41:38;34.08;;;17.83;;
611;SDS011;293;53.888;11.464;2022-12-18T00:44:25;54.67;;;19.92;;
611;SDS011;293;53.888;11.464;2022-12-18T00:46:52;33.70;;;17.65;;
611;SDS011;293;53.888;11.464;2022-12-18T00:49:21;37.35;;;17.38;;
611;SDS011;293;53.888;11.464;2022-12-18T00:51:48;35.42;;;17.17;;
611;SDS011;293;53.888;11.464;2022-12-18T00:54:15;36.38;;;16.35;;
611;SDS011;293;53.888;11.464;2022-12-18T00:56:43;35.17;;;16.02;;
611;SDS011;293;53.888;11.464;2022-12-18T00:59:10;37.70;;;19.35;;
611;SDS011;293;53.888;11.464;2022-12-18T01:01:38;38.30;;;17.15;;
611;SDS011;293;53.888;11.464;2022-12-18T01:04:05;35.00;;;16.77;;
611;SDS011;293;53.888;11.464;2022-12-18T01:06:32;39.03;;;17.13;;
611;SDS011;293;53.888;11.464;2022-12-18T01:09:01;35.60;;;17.23;;
611;SDS011;293;53.888;11.464;2022-12-18T01:11:28;36.28;;;18.77;;
611;SDS011;293;53.888;11.464;2022-12-18T01:13:55;43.38;;;19.00;;
611;SDS011;293;53.888;11.464;2022-12-18T01:16:22;30.67;;;16.15;;
611;SDS011;293;53.888;11.464;2022-12-18T01:18:52;41.72;;;18.48;;
611;SDS011;293;53.888;11.464;2022-12-18T01:21:20;29.25;;;18.75;;
611;SDS011;293;53.888;11.464;2022-12-18T01:23:50;31.65;;;15.38;;
611;SDS011;293;53.888;11.464;2022-12-18T01:26:18;38.55;;;16.90;;
611;SDS011;293;53.888;11.464;2022-12-18T01:28:45;32.70;;;16.33;;
611;SDS011;293;53.888;11.464;2022-12-18T01:31:13;29.15;;;14.75;;
611;SDS011;293;53.888;11.464;2022-12-18T01:33:42;22.35;;;13.18;;
611;SDS011;293;53.888;11.464;2022-12-18T01:36:15;29.13;;;13.07;;
611;SDS011;293;53.888;11.464;2022-12-18T01:38:43;31.83;;;16.13;;
611;SDS011;293;53.888;11.464;2022-12-18T01:41:10;31.73;;;14.38;;
611;SDS011;293;53.888;11.464;2022-12-18T01:43:41;29.67;;;15.57;;
611;SDS011;293;53.888;11.464;2022-12-18T01:46:13;33.08;;;16.10;;
611;SDS011;293;53.888;11.464;2022-12-18T01:48:41;33.28;;;15.60;;
611;SDS011;293;53.888;11.464;2022-12-18T01:51:09;33.83;;;15.23;;
611;SDS011;293;53.888;11.464;2022-12-18T01:53:39;35.28;;;16.13;;
611;SDS011;293;53.888;11.464;2022-12-18T01:56:08;28.45;;;14.82;;
611;SDS011;293;53.888;11.464;2022-12-18T01:58:39;28.45;;;14.77;;
611;SDS011;293;53.888;11.464;2022-12-18T02:01:12;31.80;;;15.32;;
611;SDS011;293;53.888;11.464;2022-12-18T02:03:40;28.45;;;14.65;;
611;SDS011;293;53.888;11.464;2022-12-18T02:06:10;25.30;;;13.43;;
611;SDS011;293;53.888;11.464;2022-12-18T02:08:45;31.42;;;16.63;;
611;SDS011;293;53.888;11.464;2022-12-18T02:11:22;29.00;;;14.10;;
611;SDS011;293;53.888;11.464;2022-12-18T02:13:59;28.60;;;15.30;;
611;SDS011;293;53.888;11.464;2022-12-18T02:16:32;24.52;;;14.23;;
611;SDS011;293;53.888;11.464;2022-12-18T02:19:06;30.88;;;14.57;;
611;SDS011;293;53.888;11.464;2022-12-18T02:21:44;28.10;;;15.80;;
611;SDS011;293;53.888;11.464;2022-12-18T02:24:24;28.30;;;15.63;;
611;SDS011;293;53.888;11.464;2022-12-18T02:27:01;26.05;;;13.55;;
611;SDS011;293;53.888;11.464;2022-12-18T02:29:32;23.70;;;14.05;;
611;SDS011;293;53.888;11.464;2022-12-18T02:32:04;29.33;;;13.60;;
611;SDS011;293;53.888;11.464;2022-12-18T02:34:36;25.80;;;14.07;;
611;SDS011;293;53.888;11.464;2022-12-18T02:37:06;26.33;;;14.27;;
611;SDS011;293;53.888;11.464;2022-12-18T02:39:37;28.58;;;14.32;;
611;SDS011;293;53.888;11.464;2022-12-18T02:42:07;22.92;;;12.80;;
611;SDS011;293;53.888;11.464;2022-12-18T02:44:34;32.70;;;14.25;;
611;SDS011;293;53.888;11.464;2022-12-18T02:47:01;28.58;;;14.35;;
611;SDS011;293;53.888;11.464;2022-12-18T02:49:31;26.75;;;14.00;;
611;SDS011;293;53.888;11.464;2022-12-18T02:52:07;25.05;;;13.25;;
611;SDS011;293;53.888;11.464;2022-12-18T02:54:49;26.58;;;13.20;;
611;SDS011;293;53.888;11.464;2022-12-18T02:57:27;23.02;;;12.30;;
611;SDS011;293;53.888;11.464;2022-12-18T03:00:02;22.42;;;12.10;;
611;SDS011;293;53.888;11.464;2022-12-18T03:02:33;24.35;;;14.55;;
611;SDS011;293;53.888;11.464;2022-12-18T03:05:07;30.45;;;14.80;;
611;SDS011;293;53.888;11.464;2022-12-18T03:07:41;32.05;;;14.20;;
611;SDS011;293;53.888;11.464;2022-12-18T03:10:13;28.75;;;11.80;;
611;SDS011;293;53.888;11.464;2022-12-18T03:12:46;27.67;;;13.13;;
611;SDS011;293;53.888;11.464;2022-12-18T03:15:18;25.60;;;12.82;;
611;SDS011;293;53.888;11.464;2022-12-18T03:17:50;20.95;;;12.77;;
611;SDS011;293;53.888;11.464;2022-12-18T03:20:22;26.23;;;14.43;;
611;SDS011;293;53.888;11.464;2022-12-18T03:25:38;24.38;;;12.48;;
611;SDS011;293;53.888;11.464;2022-12-18T03:28:10;20.42;;;12.52;;
611;SDS011;293;53.888;11.464;2022-12-18T03:30:40;24.60;;;12.90;;
611;SDS011;293;53.888;11.464;2022-12-18T03:33:10;21.13;;;13.13;;
611;SDS011;293;53.888;11.464;2022-12-18T03:35:44;23.45;;;12.23;;
611;SDS011;293;53.888;11.464;2022-12-18T03:38:11;26.95;;;14.13;;
611;SDS011;293;53.888;11.464;2022-12-18T03:40:42;25.90;;;13.43;;
611;SDS011;293;53.888;11.464;2022-12-18T03:43:18;25.85;;;12.77;;
611;SDS011;293;53.888;11.464;2022-12-18T03:45:51;26.73;;;12.13;;
611;SDS011;293;53.888;11.464;2022-12-18T03:48:26;23.75;;;13.85;;
611;SDS011;293;53.888;11.464;2022-12-18T03:50:58;20.50;;;11.23;;
611;SDS011;293;53.888;11.464;2022-12-18T03:53:30;21.15;;;10.00;;
611;SDS011;293;53.888;11.464;2022-12-18T03:56:00;27.40;;;12.75;;
611;SDS011;293;53.888;11.464;2022-12-18T03:58:31;20.45;;;11.25;;
611;SDS011;293;53.888;11.464;2022-12-18T04:01:01;23.33;;;12.52;;
611;SDS011;293;53.888;11.464;2022-12-18T04:03:31;23.35;;;11.02;;
611;SDS011;293;53.888;11.464;2022-12-18T04:06:00;20.73;;;11.50;;
611;SDS011;293;53.888;11.464;2022-12-18T04:08:28;22.05;;;10.55;;
611;SDS011;293;53.888;11.464;2022-12-18T04:10:55;31.38;;;13.38;;
611;SDS011;293;53.888;11.464;2022-12-18T04:13:23;17.85;;;9.98;;
611;SDS011;293;53.888;11.464;2022-12-18T04:15:52;25.25;;;11.85;;
611;SDS011;293;53.888;11.464;2022-12-18T04:18:19;20.08;;;11.10;;
611;SDS011;293;53.888;11.464;2022-12-18T04:20:46;22.73;;;11.15;;
611;SDS011;293;53.888;11.464;2022-12-18T04:23:12;22.73;;;11.35;;
611;SDS011;293;53.888;11.464;2022-12-18T04:25:39;19.38;;;10.70;;
611;SDS011;293;53.888;11.464;2022-12-18T04:28:06;23.15;;;10.77;;
611;SDS011;293;53.888;11.464;2022-12-18T04:30:33;25.10;;;11.75;;
611;SDS011;293;53.888;11.464;2022-12-18T04:33:01;22.52;;;11.40;;
611;SDS011;293;53.888;11.464;2022-12-18T04:35:28;21.98;;;10.10;;
611;SDS011;293;53.888;11.464;2022-12-18T04:37:56;22.90;;;9.32;;
611;SDS011;293;53.888;11.464;2022-12-18T04:40:22;20.98;;;10.30;;
611;SDS011;293;53.888;11.464;2022-12-18T04:42:49;19.90;;;10.63;;
611;SDS011;293;53.888;11.464;2022-12-18T04:45:16;24.60;;;13.05;;
611;SDS011;293;53.888;11.464;2022-12-18T04:47:43;17.40;;;9.73;;
611;SDS011;293;53.888;11.464;2022-12-18T04:50:11;17.83;;;9.45;;
611;SDS011;293;53.888;11.464;2022-12-18T04:52:38;18.38;;;10.07;;
611;SDS011;293;53.888;11.464;2022-12-18T04:55:05;25.70;;;11.40;;
611;SDS011;293;53.888;11.464;2022-12-18T04:57:32;18.77;;;10.18;;
611;SDS011;293;53.888;11.464;2022-12-18T04:59:59;20.08;;;9.77;;
611;SDS011;293;53.888;11.464;2022-12-18T05:02:26;22.00;;;11.30;;
611;SDS011;293;53.888;11.464;2022-12-18T05:04:53;20.95;;;8.90;;
611;SDS011;293;53.888;11.464;2022-12-18T05:07:21;16.98;;;8.98;;
611;SDS011;293;53.888;11.464;2022-12-18T05:09:48;20.88;;;10.65;;
611;SDS011;293;53.888;11.464;2022-12-18T05:12:15;22.85;;;10.80;;
611;SDS011;293;53.888;11.464;2022-12-18T05:14:42;22.13;;;10.73;;
611;SDS011;293;53.888;11.464;2022-12-18T05:17:09;22.10;;;10.20;;
611;SDS011;293;53.888;11.464;2022-12-18T05:19:36;25.08;;;10.25;;
611;SDS011;293;53.888;11.464;2022-12-18T05:22:07;15.93;;;9.05;;
611;SDS011;293;53.888;11.464;2022-12-18T05:24:35;15.50;;;9.25;;
611;SDS011;293;53.888;11.464;2022-12-18T05:27:02;24.60;;;11.10;;
611;SDS011;293;53.888;11.464;2022-12-18T05:29:29;15.50;;;8.43;;
611;SDS011;293;53.888;11.464;2022-12-18T05:31:56;26.10;;;11.38;;
611;SDS011;293;53.888;11.464;2022-12-18T05:34:23;15.57;;;10.23;;
611;SDS011;293;53.888;11.464;2022-12-18T05:36:50;23.17;;;11.18;;
611;SDS011;293;53.888;11.464;2022-12-18T05:39:17;17.33;;;9.73;;
611;SDS011;293;53.888;11.464;2022-12-18T05:41:45;27.17;;;10.90;;
611;SDS011;293;53.888;11.464;2022-12-18T05:44:12;25.77;;;11.00;;
611;SDS011;293;53.888;11.464;2022-12-18T05:46:39;22.80;;;12.52;;
611;SDS011;293;53.888;11.464;2022-12-18T05:49:05;19.80;;;10.75;;
611;SDS011;293;53.888;11.464;2022-12-18T05:51:32;19.25;;;10.25;;
611;SDS011;293;53.888;11.464;2022-12-18T05:53:59;26.67;;;12.45;;
611;SDS011;293;53.888;11.464;2022-12-18T05:56:26;24.15;;;12.68;;
611;SDS011;293;53.888;11.464;2022-12-18T05:58:54;23.67;;;11.68;;
611;SDS011;293;53.888;11.464;2022-12-18T06:01:22;23.08;;;11.85;;
611;SDS011;293;53.888;11.464;2022-12-18T06:03:51;18.45;;;8.25;;
611;SDS011;293;53.888;11.464;2022-12-18T06:06:19;19.15;;;9.23;;
611;SDS011;293;53.888;11.464;2022-12-18T06:08:47;18.63;;;9.50;;
611;SDS011;293;53.888;11.464;2022-12-18T06:11:16;17.20;;;8.38;;
611;SDS011;293;53.888;11.464;2022-12-18T06:13:44;15.70;;;9.05;;
611;SDS011;293;53.888;11.464;2022-12-18T06:16:13;19.00;;;9.52;;
611;SDS011;293;53.888;11.464;2022-12-18T06:18:40;15.73;;;8.82;;
611;SDS011;293;53.888;11.464;2022-12-18T06:21:07;20.23;;;9.65;;
611;SDS011;293;53.888;11.464;2022-12-18T06:23:33;17.52;;;10.65;;
611;SDS011;293;53.888;11.464;2022-12-18T06:26:03;20.83;;;10.73;;
611;SDS011;293;53.888;11.464;2022-12-18T06:28:31;20.33;;;10.73;;
611;SDS011;293;53.888;11.464;2022-12-18T06:30:58;22.90;;;9.95;;
611;SDS011;293;53.888;11.464;2022-12-18T06:33:27;19.70;;;9.43;;
611;SDS011;293;53.888;11.464;2022-12-18T06:35:54;21.48;;;8.85;;
611;SDS011;293;53.888;11.464;2022-12-18T06:38:25;18.70;;;7.53;;
611;SDS011;293;53.888;11.464;2022-12-18T06:40:52;21.08;;;10.65;;
611;SDS011;293;53.888;11.464;2022-12-18T06:43:19;17.17;;;8.55;;
611;SDS011;293;53.888;11.464;2022-12-18T06:45:46;17.95;;;8.55;;
611;SDS011;293;53.888;11.464;2022-12-18T06:48:17;18.75;;;10.55;;
611;SDS011;293;53.888;11.464;2022-12-18T06:50:45;15.35;;;8.52;;
611;SDS011;293;53.888;11.464;2022-12-18T06:53:13;18.60;;;9.48;;
611;SDS011;293;53.888;11.464;2022-12-18T06:55:40;20.27;;;9.88;;
611;SDS011;293;53.888;11.464;2022-12-18T06:58:06;20.10;;;9.52;;
611;SDS011;293;53.888;11.464;2022-12-18T07:00:33;23.00;;;9.35;;
611;SDS011;293;53.888;11.464;2022-12-18T07:03:00;21.60;;;10.13;;
611;SDS011;293;53.888;11.464;2022-12-18T07:05:27;20.50;;;10.38;;
611;SDS011;293;53.888;11.464;2022-12-18T07:07:56;17.88;;;9.27;;
611;SDS011;293;53.888;11.464;2022-12-18T07:10:23;23.50;;;9.02;;
611;SDS011;293;53.888;11.464;2022-12-18T07:12:50;20.67;;;9.93;;
611;SDS011;293;53.888;11.464;2022-12-18T07:15:17;21.00;;;11.05;;
611;SDS011;293;53.888;11.464;2022-12-18T07:17:44;16.05;;;9.05;;
611;SDS011;293;53.888;11.464;2022-12-18T07:20:11;33.05;;;15.40;;
611;SDS011;293;53.888;11.464;2022-12-18T07:22:37;21.90;;;10.55;;
611;SDS011;293;53.888;11.464;2022-12-18T07:25:07;21.23;;;9.85;;
611;SDS011;293;53.888;11.464;2022-12-18T07:27:34;19.25;;;9.63;;
611;SDS011;293;53.888;11.464;2022-12-18T07:30:01;20.80;;;9.88;;
611;SDS011;293;53.888;11.464;2022-12-18T07:32:28;18.95;;;10.27;;
611;SDS011;293;53.888;11.464;2022-12-18T07:34:56;16.65;;;8.93;;
611;SDS011;293;53.888;11.464;2022-12-18T07:38:55;14.85;;;7.53;;
611;SDS011;293;53.888;11.464;2022-12-18T07:41:22;15.55;;;8.73;;
611;SDS011;293;53.888;11.464;2022-12-18T07:43:49;15.95;;;8.15;;
611;SDS011;293;53.888;11.464;2022-12-18T07:46:16;19.23;;;8.45;;
611;SDS011;293;53.888;11.464;2022-12-18T07:48:43;19.70;;;9.10;;
611;SDS011;293;53.888;11.464;2022-12-18T07:51:11;13.50;;;9.73;;
611;SDS011;293;53.888;11.464;2022-12-18T07:53:38;21.00;;;10.40;;
611;SDS011;293;53.888;11.464;2022-12-18T07:56:07;15.98;;;9.77;;
611;SDS011;293;53.888;11.464;2022-12-18T07:58:36;14.25;;;8.18;;
611;SDS011;293;53.888;11.464;2022-12-18T08:01:03;17.13;;;8.00;;
611;SDS011;293;53.888;11.464;2022-12-18T08:03:31;18.80;;;9.98;;
611;SDS011;293;53.888;11.464;2022-12-18T08:05:59;18.77;;;9.43;;
611;SDS011;293;53.888;11.464;2022-12-18T08:08:27;16.50;;;8.90;;
611;SDS011;293;53.888;11.464;2022-12-18T08:10:54;23.15;;;8.45;;
611;SDS011;293;53.888;11.464;2022-12-18T08:13:22;15.20;;;7.65;;
611;SDS011;293;53.888;11.464;2022-12-18T08:15:55;40.65;;;25.55;;
611;SDS011;293;53.888;11.464;2022-12-18T08:18:23;25.38;;;11.75;;
611;SDS011;293;53.888;11.464;2022-12-18T08:20:50;16.92;;;8.93;;
611;SDS011;293;53.888;11.464;2022-12-18T08:23:16;13.23;;;7.85;;
611;SDS011;293;53.888;11.464;2022-12-18T08:25:43;20.95;;;8.65;;
611;SDS011;293;53.888;11.464;2022-12-18T08:28:10;19.10;;;9.32;;
611;SDS011;293;53.888;11.464;2022-12-18T08:30:38;21.38;;;9.63;;
611;SDS011;293;53.888;11.464;2022-12-18T08:33:05;16.55;;;8.70;;
611;SDS011;293;53.888;11.464;2022-12-18T08:35:34;16.23;;;8.10;;
611;SDS011;293;53.888;11.464;2022-12-18T08:38:01;17.85;;;8.82;;
611;SDS011;293;53.888;11.464;2022-12-18T08:40:29;19.15;;;9.00;;
611;SDS011;293;53.888;11.464;2022-12-18T08:42:55;19.60;;;8.57;;
611;SDS011;293;53.888;11.464;2022-12-18T08:45:41;21.23;;;9.60;;
611;SDS011;293;53.888;11.464;2022-12-18T08:48:08;20.00;;;10.52;;
611;SDS011;293;53.888;11.464;2022-12-18T08:50:35;20.45;;;10.57;;
611;SDS011;293;53.888;11.464;2022-12-18T08:53:02;22.80;;;10.80;;
611;SDS011;293;53.888;11.464;2022-12-18T08:55:28;15.95;;;8.75;;
611;SDS011;293;53.888;11.464;2022-12-18T08:57:55;26.25;;;11.13;;
611;SDS011;293;53.888;11.464;2022-12-18T09:00:22;21.63;;;10.82;;
611;SDS011;293;53.888;11.464;2022-12-18T09:02:50;20.40;;;11.68;;
611;SDS011;293;53.888;11.464;2022-12-18T09:05:17;22.42;;;12.07;;
611;SDS011;293;53.888;11.464;2022-12-18T09:07:44;24.90;;;10.60;;
611;SDS011;293;53.888;11.464;2022-12-18T09:10:11;18.00;;;10.32;;
611;SDS011;293;53.888;11.464;2022-12-18T09:12:38;23.13;;;11.15;;
611;SDS011;293;53.888;11.464;2022-12-18T09:15:05;18.80;;;9.55;;
611;SDS011;293;53.888;11.464;2022-12-18T09:17:32;20.58;;;10.00;;
611;SDS011;293;53.888;11.464;2022-12-18T09:20:00;20.73;;;9.82;;
611;SDS011;293;53.888;11.464;2022-12-18T09:22:27;17.42;;;10.05;;
611;SDS011;293;53.888;11.464;2022-12-18T09:24:54;23.80;;;9.40;;
611;SDS011;293;53.888;11.464;2022-12-18T09:27:21;26.73;;;10.00;;
611;SDS011;293;53.888;11.464;2022-12-18T09:29:48;21.92;;;11.20;;
611;SDS011;293;53.888;11.464;2022-12-18T09:32:15;21.73;;;10.43;;
611;SDS011;293;53.888;11.464;2022-12-18T09:34:41;20.95;;;10.75;;
611;SDS011;293;53.888;11.464;2022-12-18T09:37:10;23.40;;;10.73;;
611;SDS011;293;53.888;11.464;2022-12-18T09:39:37;22.77;;;11.95;;
611;SDS011;293;53.888;11.464;2022-12-18T09:42:04;21.88;;;12.00;;
611;SDS011;293;53.888;11.464;2022-12-18T09:44:32;22.35;;;10.10;;
611;SDS011;293;53.888;11.464;2022-12-18T09:47:06;21.77;;;9.60;;
611;SDS011;293;53.888;11.464;2022-12-18T09:49:39;26.60;;;10.20;;
611;SDS011;293;53.888;11.464;2022-12-18T09:52:11;24.15;;;12.27;;
611;SDS011;293;53.888;11.464;2022-12-18T09:54:42;25.92;;;12.30;;
611;SDS011;293;53.888;11.464;2022-12-18T09:57:13;21.20;;;11.98;;
611;SDS011;293;53.888;11.464;2022-12-18T09:59:43;22.83;;;11.48;;
611;SDS011;293;53.888;11.464;2022-12-18T10:02:16;18.70;;;10.07;;
611;SDS011;293;53.888;11.464;2022-12-18T10:04:48;21.67;;;11.75;;
611;SDS011;293;53.888;11.464;2022-12-18T10:07:41;28.75;;;11.48;;
611;SDS011;293;53.888;11.464;2022-12-18T10:10:18;25.38;;;10.95;;
611;SDS011;293;53.888;11.464;2022-12-18T10:12:54;20.98;;;11.73;;
611;SDS011;293;53.888;11.464;2022-12-18T10:15:28;19.15;;;10.73;;
611;SDS011;293;53.888;11.464;2022-12-18T10:18:02;20.52;;;10.15;;
611;SDS011;293;53.888;11.464;2022-12-18T10:20:38;24.50;;;10.50;;
611;SDS011;293;53.888;11.464;2022-12-18T10:23:12;20.60;;;10.63;;
611;SDS011;293;53.888;11.464;2022-12-18T10:25:50;28.42;;;13.60;;
611;SDS011;293;53.888;11.464;2022-12-18T10:28:21;24.45;;;12.80;;
611;SDS011;293;53.888;11.464;2022-12-18T10:30:49;28.13;;;13.73;;
611;SDS011;293;53.888;11.464;2022-12-18T10:33:17;33.75;;;12.77;;
611;SDS011;293;53.888;11.464;2022-12-18T10:35:45;28.85;;;11.88;;
611;SDS011;293;53.888;11.464;2022-12-18T10:38:21;24.80;;;11.25;;
611;SDS011;293;53.888;11.464;2022-12-18T10:40:51;28.75;;;13.95;;
611;SDS011;293;53.888;11.464;2022-12-18T10:43:19;32.20;;;14.32;;
611;SDS011;293;53.888;11.464;2022-12-18T10:45:58;23.40;;;12.02;;
611;SDS011;293;53.888;11.464;2022-12-18T10:48:32;21.88;;;11.45;;
611;SDS011;293;53.888;11.464;2022-12-18T10:51:01;27.17;;;13.38;;
611;SDS011;293;53.888;11.464;2022-12-18T10:53:30;26.73;;;14.60;;
611;SDS011;293;53.888;11.464;2022-12-18T10:55:59;29.92;;;13.90;;
611;SDS011;293;53.888;11.464;2022-12-18T10:58:26;22.25;;;10.82;;
611;SDS011;293;53.888;11.464;2022-12-18T11:01:07;31.92;;;13.88;;
611;SDS011;293;53.888;11.464;2022-12-18T11:03:36;19.33;;;12.13;;
611;SDS011;293;53.888;11.464;2022-12-18T11:06:05;31.77;;;13.55;;
611;SDS011;293;53.888;11.464;2022-12-18T11:08:35;24.90;;;11.40;;
611;SDS011;293;53.888;11.464;2022-12-18T11:11:03;22.98;;;12.02;;
611;SDS011;293;53.888;11.464;2022-12-18T11:13:33;30.05;;;14.45;;
611;SDS011;293;53.888;11.464;2022-12-18T11:16:00;32.97;;;13.07;;
611;SDS011;293;53.888;11.464;2022-12-18T11:18:28;31.08;;;12.38;;
611;SDS011;293;53.888;11.464;2022-12-18T11:20:57;30.58;;;12.90;;
611;SDS011;293;53.888;11.464;2022-12-18T11:23:26;28.35;;;13.73;;
611;SDS011;293;53.888;11.464;2022-12-18T11:25:56;25.25;;;12.38;;
611;SDS011;293;53.888;11.464;2022-12-18T11:28:25;31.00;;;13.48;;
611;SDS011;293;53.888;11.464;2022-12-18T11:33:53;32.00;;;14.15;;
611;SDS011;293;53.888;11.464;2022-12-18T11:36:25;32.85;;;15.02;;
611;SDS011;293;53.888;11.464;2022-12-18T11:38:57;29.10;;;14.48;;
611;SDS011;293;53.888;11.464;2022-12-18T11:41:30;29.08;;;13.75;;
611;SDS011;293;53.888;11.464;2022-12-18T11:44:21;31.80;;;15.15;;
611;SDS011;293;53.888;11.464;2022-12-18T11:46:53;31.17;;;15.45;;
611;SDS011;293;53.888;11.464;2022-12-18T11:49:26;40.75;;;15.20;;
611;SDS011;293;53.888;11.464;2022-12-18T11:51:58;26.92;;;13.40;;
611;SDS011;293;53.888;11.464;2022-12-18T11:54:27;34.67;;;14.48;;
611;SDS011;293;53.888;11.464;2022-12-18T11:56:58;37.42;;;14.95;;
611;SDS011;293;53.888;11.464;2022-12-18T11:59:35;26.80;;;13.85;;
611;SDS011;293;53.888;11.464;2022-12-18T12:02:17;35.10;;;16.20;;
611;SDS011;293;53.888;11.464;2022-12-18T12:05:03;34.40;;;14.48;;
611;SDS011;293;53.888;11.464;2022-12-18T12:07:43;34.20;;;13.50;;
611;SDS011;293;53.888;11.464;2022-12-18T12:10:19;32.63;;;15.38;;
611;SDS011;293;53.888;11.464;2022-12-18T12:13:05;30.30;;;13.82;;
611;SDS011;293;53.888;11.464;2022-12-18T12:15:48;55.20;;;31.67;;
611;SDS011;293;53.888;11.464;2022-12-18T12:18:28;38.17;;;17.52;;
611;SDS011;293;53.888;11.464;2022-12-18T12:21:03;29.42;;;14.13;;
611;SDS011;293;53.888;11.464;2022-12-18T12:23:38;29.90;;;14.30;;
611;SDS011;293;53.888;11.464;2022-12-18T12:26:09;38.60;;;14.43;;
611;SDS011;293;53.888;11.464;2022-12-18T12:31:41;27.85;;;14.23;;
611;SDS011;293;53.888;11.464;2022-12-18T12:34:20;32.33;;;14.02;;
611;SDS011;293;53.888;11.464;2022-12-18T12:36:57;30.50;;;14.13;;
611;SDS011;293;53.888;11.464;2022-12-18T12:39:36;30.63;;;14.80;;
611;SDS011;293;53.888;11.464;2022-12-18T12:42:10;39.33;;;13.45;;
611;SDS011;293;53.888;11.464;2022-12-18T12:45:00;36.78;;;15.95;;
611;SDS011;293;53.888;11.464;2022-12-18T12:47:33;28.77;;;14.00;;
611;SDS011;293;53.888;11.464;2022-12-18T12:50:05;29.02;;;14.75;;
611;SDS011;293;53.888;11.464;2022-12-18T12:52:39;32.00;;;12.70;;
611;SDS011;293;53.888;11.464;2022-12-18T12:55:12;25.55;;;13.02;;
611;SDS011;293;53.888;11.464;2022-12-18T12:57:43;28.80;;;15.73;;
611;SDS011;293;53.888;11.464;2022-12-18T13:00:16;28.88;;;13.13;;
611;SDS011;293;53.888;11.464;2022-12-18T13:02:46;31.30;;;13.77;;
611;SDS011;293;53.888;11.464;2022-12-18T13:05:19;30.35;;;14.07;;
611;SDS011;293;53.888;11.464;2022-12-18T13:07:51;26.67;;;13.63;;
611;SDS011;293;53.888;11.464;2022-12-18T13:10:25;31.02;;;15.00;;
611;SDS011;293;53.888;11.464;2022-12-18T13:12:57;24.23;;;12.50;;
611;SDS011;293;53.888;11.464;2022-12-18T13:15:32;21.67;;;11.20;;
611;SDS011;293;53.888;11.464;2022-12-18T13:18:11;23.02;;;12.70;;
611;SDS011;293;53.888;11.464;2022-12-18T13:20:44;23.60;;;11.57;;
611;SDS011;293;53.888;11.464;2022-12-18T13:23:29;29.50;;;15.63;;
611;SDS011;293;53.888;11.464;2022-12-18T13:25:59;25.77;;;12.60;;
611;SDS011;293;53.888;11.464;2022-12-18T13:28:55;24.70;;;14.32;;
611;SDS011;293;53.888;11.464;2022-12-18T13:34:26;32.42;;;13.70;;
611;SDS011;293;53.888;11.464;2022-12-18T13:36:55;20.50;;;11.32;;
611;SDS011;293;53.888;11.464;2022-12-18T13:39:43;24.00;;;12.13;;
611;SDS011;293;53.888;11.464;2022-12-18T13:48:16;23.45;;;11.15;;
611;SDS011;293;53.888;11.464;2022-12-18T13:50:48;24.92;;;14.23;;
611;SDS011;293;53.888;11.464;2022-12-18T13:53:19;26.00;;;13.98;;
611;SDS011;293;53.888;11.464;2022-12-18T13:55:49;23.67;;;11.02;;
611;SDS011;293;53.888;11.464;2022-12-18T13:58:16;30.27;;;15.18;;
611;SDS011;293;53.888;11.464;2022-12-18T14:00:43;23.40;;;13.45;;
611;SDS011;293;53.888;11.464;2022-12-18T14:03:19;32.40;;;14.40;;
611;SDS011;293;53.888;11.464;2022-12-18T14:05:52;26.70;;;14.05;;
611;SDS011;293;53.888;11.464;2022-12-18T14:08:21;26.27;;;14.05;;
611;SDS011;293;53.888;11.464;2022-12-18T14:10:52;25.83;;;13.85;;
611;SDS011;293;53.888;11.464;2022-12-18T14:13:21;22.08;;;12.65;;
611;SDS011;293;53.888;11.464;2022-12-18T14:15:52;24.95;;;12.55;;
611;SDS011;293;53.888;11.464;2022-12-18T14:18:22;27.23;;;12.52;;
611;SDS011;293;53.888;11.464;2022-12-18T14:20:51;20.23;;;12.80;;
611;SDS011;293;53.888;11.464;2022-12-18T14:23:28;26.63;;;14.60;;
611;SDS011;293;53.888;11.464;2022-12-18T14:25:58;28.20;;;13.63;;
611;SDS011;293;53.888;11.464;2022-12-18T14:28:26;25.17;;;13.43;;
611;SDS011;293;53.888;11.464;2022-12-18T14:30:53;26.77;;;13.82;;
611;SDS011;293;53.888;11.464;2022-12-18T14:33:23;27.30;;;14.50;;
611;SDS011;293;53.888;11.464;2022-12-18T14:35:52;27.05;;;13.40;;
611;SDS011;293;53.888;11.464;2022-12-18T14:38:23;26.20;;;13.18;;
611;SDS011;293;53.888;11.464;2022-12-18T14:40:52;31.38;;;14.32;;
611;SDS011;293;53.888;11.464;2022-12-18T14:43:21;28.60;;;11.75;;
611;SDS011;293;53.888;11.464;2022-12-18T14:45:48;33.25;;;12.98;;
611;SDS011;293;53.888;11.464;2022-12-18T14:48:16;27.15;;;12.30;;
611;SDS011;293;53.888;11.464;2022-12-18T14:50:54;22.23;;;12.70;;
611;SDS011;293;53.888;11.464;2022-12-18T14:53:27;27.20;;;11.80;;
611;SDS011;293;53.888;11.464;2022-12-18T14:55:59;26.27;;;12.75;;
611;SDS011;293;53.888;11.464;2022-12-18T14:58:27;32.80;;;14.50;;
611;SDS011;293;53.888;11.464;2022-12-18T15:00:54;28.27;;;15.70;;
611;SDS011;293;53.888;11.464;2022-12-18T15:03:21;23.67;;;11.63;;
611;SDS011;293;53.888;11.464;2022-12-18T15:05:49;27.80;;;13.93;;
611;SDS011;293;53.888;11.464;2022-12-18T15:08:27;22.73;;;12.80;;
611;SDS011;293;53.888;11.464;2022-12-18T15:10:57;26.38;;;13.50;;
611;SDS011;293;53.888;11.464;2022-12-18T15:13:24;21.85;;;12.15;;
611;SDS011;293;53.888;11.464;2022-12-18T15:15:51;25.70;;;11.77;;
611;SDS011;293;53.888;11.464;2022-12-18T15:18:21;29.13;;;13.48;;
611;SDS011;293;53.888;11.464;2022-12-18T15:20:54;25.95;;;12.40;;
611;SDS011;293;53.888;11.464;2022-12-18T15:23:24;27.98;;;12.75;;
611;SDS011;293;53.888;11.464;2022-12-18T15:25:57;20.75;;;13.10;;
611;SDS011;293;53.888;11.464;2022-12-18T15:28:26;17.83;;;11.32;;
611;SDS011;293;53.888;11.464;2022-12-18T15:31:05;25.80;;;12.60;;
611;SDS011;293;53.888;11.464;2022-12-18T15:34:00;25.45;;;14.50;;
611;SDS011;293;53.888;11.464;2022-12-18T15:36:33;27.35;;;13.63;;
611;SDS011;293;53.888;11.464;2022-12-18T15:39:01;32.38;;;14.23;;
611;SDS011;293;53.888;11.464;2022-12-18T15:41:30;27.60;;;12.55;;
611;SDS011;293;53.888;11.464;2022-12-18T15:43:58;19.95;;;11.50;;